Port Lavaca, TX

3:43 AM CST on February 23, 2017 (GMT -0600)
Alamo heights | | Change Station
Active Advisory: Flood Warning

Elev 36 ft 28.61 °N, 96.63 °W | Updated 3 minutes ago

Mostly Cloudy
Mostly Cloudy
62.7 °F
Feels Like 62.7 °F
N
2.0
Wind Variable Wind from South
Gusts 2.0 mph

Today
High -- | Low -- °F
--% Chance of Precip.
Yesterday
High -- | Low -- °F
Precip. -- in
Pressure 29.74 in
Visibility 0.2 miles
Clouds
Dew Point 59 °F
Humidity 88%
Rainfall 0.00 in
Snow Depth Not available.
6:57 AM 6:22 PM
Waning Crescent, 11% visible
METAR KPKV 230935Z AUTO 00000KT M1/4SM +RA VV000 15/15 A2974 RMK AO2 T01470147
Pressure 29.74 in
Visibility 0.2 miles
Clouds
Dew Point 59 °F
Humidity 88%
Rainfall 0.00 in
Snow Depth Not available.
6:57 AM 6:22 PM
Waning Crescent, 11% visible
METAR KPKV 230935Z AUTO 00000KT M1/4SM +RA VV000 15/15 A2974 RMK AO2 T01470147

Get Your Daily Forecast Email!

Thanks for signing up!

Be on the lookout for a verification email in your inbox.

You'll start receiving the daily forecast at 8 AM.

×

10-Day Weather Forecast

Almanac

Astronomy

Feb. 23, 2017 Rise Set
Actual Time
Civil Twilight
Nautical Twilight
Astronomical Twilight
Moon
Length of Visible Light
Length of Day
Tomorrow will be .
, % of the Moon is Illuminated

Today's Extremes

State Highs State Lows

Community

WunderPhotos

Upload Photos

1,962,540 photos uploaded!

WunderBlog® & News

Nearby

Air Quality

  Air Quality AQ Index Pollutant
Not available.

Snow Depth

Station Depth Elevation

Earthquake Activity

City Distance Mag. Time & Date
Minimum magnitude displayed is 2.5.

Coastal Water Temperatures

Place Temperature

Stations

Nearby Weather Stations

Station Location Temp. Windchill Dew Point Humidity Wind Precip. Elev Updated Type
                   

Watches & Warnings

Flood Warning
Issued: 7:22 PM CST Feb. 22, 2017 – National Weather Service

The Flood Warning continues for the Guadalupe River near Bloomington.
* Until Sunday afternoon... or until the warning is cancelled.
* At 7:00 PM Wednesday the stage was 19.5 feet.
* Minor flooding is forecast.
* Flood stage is 20.0 feet.
* Forecast: rise above flood stage by tomorrow morning and continue
to rise to near 22.0 feet by Friday early afternoon. The river will
fall below flood stage by early Sunday morning.
* At 24.0 feet moderate lowland flooding occurs, with the river
reaching well into the flood plain. Any oil tank batteries, pump
jacks, and secondary roads near the river may be flooded.


Below are the latest river stages and stage forecasts:

                      fld latest forecast 6 am lst
location stg stg day time Thu Fri Sat sun Mon

Guadalupe River
Bloomington 20 19.5 Wed 07 PM 19.9 21.9 21.5 19.7 18.6


Lat... Lon 2869 9704 2869 9698 2867 9695 2857 9688
      2845 9680 2843 9685


95/tjc